sensor_id;sensor_type;location;lat;lon;timestamp;pressure;altitude;pressure_sealevel;temperature;humidity
65534;BME280;53640;55.838;37.184;2023-04-15T00:01:50;100225.81;;;0.42;20.13
65534;BME280;53640;55.838;37.184;2023-04-15T00:04:17;100269.56;;;0.70;20.29
65534;BME280;53640;55.838;37.184;2023-04-15T00:06:49;100273.41;;;0.56;20.47
65534;BME280;53640;55.838;37.184;2023-04-15T00:09:18;100295.94;;;0.73;20.14
65534;BME280;53640;55.838;37.184;2023-04-15T00:11:45;100293.50;;;0.60;20.55
65534;BME280;53640;55.838;37.184;2023-04-15T00:14:12;100295.03;;;0.63;20.59
65534;BME280;53640;55.838;37.184;2023-04-15T00:16:38;100265.63;;;0.44;20.66
65534;BME280;53640;55.838;37.184;2023-04-15T00:19:06;100277.00;;;0.46;20.86
65534;BME280;53640;55.838;37.184;2023-04-15T00:21:32;100298.94;;;0.59;20.81
65534;BME280;53640;55.838;37.184;2023-04-15T00:23:58;100285.19;;;0.54;20.52
65534;BME280;53640;55.838;37.184;2023-04-15T00:26:25;100309.75;;;0.57;20.57
65534;BME280;53640;55.838;37.184;2023-04-15T00:28:52;100288.88;;;0.42;20.82
65534;BME280;53640;55.838;37.184;2023-04-15T00:31:20;100284.06;;;0.35;20.80
65534;BME280;53640;55.838;37.184;2023-04-15T00:33:46;100250.78;;;0.09;21.03
65534;BME280;53640;55.838;37.184;2023-04-15T00:36:14;100306.81;;;0.40;20.73
65534;BME280;53640;55.838;37.184;2023-04-15T00:38:40;100306.22;;;0.36;21.00
65534;BME280;53640;55.838;37.184;2023-04-15T00:41:07;100311.41;;;0.38;21.24
65534;BME280;53640;55.838;37.184;2023-04-15T00:43:34;100328.88;;;0.30;21.04
65534;BME280;53640;55.838;37.184;2023-04-15T00:46:03;100300.53;;;0.08;21.08
65534;BME280;53640;55.838;37.184;2023-04-15T00:48:30;100324.81;;;0.15;21.24
65534;BME280;53640;55.838;37.184;2023-04-15T00:50:57;100321.47;;;0.02;21.24
65534;BME280;53640;55.838;37.184;2023-04-15T00:53:25;100323.50;;;0.09;21.27
65534;BME280;53640;55.838;37.184;2023-04-15T00:55:53;100266.91;;;-0.25;21.26
65534;BME280;53640;55.838;37.184;2023-04-15T00:58:19;100333.53;;;0.17;21.49
65534;BME280;53640;55.838;37.184;2023-04-15T01:00:46;100327.16;;;0.08;21.45
65534;BME280;53640;55.838;37.184;2023-04-15T01:03:14;100288.38;;;-0.17;21.51
65534;BME280;53640;55.838;37.184;2023-04-15T01:05:42;100350.47;;;0.16;21.42
65534;BME280;53640;55.838;37.184;2023-04-15T01:08:11;100287.94;;;-0.22;21.55
65534;BME280;53640;55.838;37.184;2023-04-15T01:10:38;100314.63;;;-0.12;21.42
65534;BME280;53640;55.838;37.184;2023-04-15T01:13:06;100322.75;;;-0.14;21.31
65534;BME280;53640;55.838;37.184;2023-04-15T01:15:34;100341.34;;;-0.02;21.79
65534;BME280;53640;55.838;37.184;2023-04-15T01:18:02;100346.75;;;-0.04;21.55
65534;BME280;53640;55.838;37.184;2023-04-15T01:20:31;100335.59;;;-0.19;21.61
65534;BME280;53640;55.838;37.184;2023-04-15T01:23:00;100309.88;;;-0.41;21.66
65534;BME280;53640;55.838;37.184;2023-04-15T01:25:31;100353.34;;;-0.19;21.55
65534;BME280;53640;55.838;37.184;2023-04-15T01:28:00;100357.09;;;-0.22;21.60
65534;BME280;53640;55.838;37.184;2023-04-15T01:30:28;100297.19;;;-0.59;21.68
65534;BME280;53640;55.838;37.184;2023-04-15T01:32:54;100294.03;;;-0.65;21.82
65534;BME280;53640;55.838;37.184;2023-04-15T01:35:42;100348.91;;;-0.41;21.95
65534;BME280;53640;55.838;37.184;2023-04-15T01:38:12;100292.50;;;-0.78;22.04
65534;BME280;53640;55.838;37.184;2023-04-15T01:40:38;100294.56;;;-0.82;22.04
65534;BME280;53640;55.838;37.184;2023-04-15T01:43:08;100298.06;;;-0.81;22.03
65534;BME280;53640;55.838;37.184;2023-04-15T01:45:37;100242.34;;;-1.17;22.00
65534;BME280;53640;55.838;37.184;2023-04-15T01:48:05;100256.50;;;-1.16;21.97
65534;BME280;53640;55.838;37.184;2023-04-15T01:50:33;100372.13;;;-0.43;21.96
65534;BME280;53640;55.838;37.184;2023-04-15T01:53:03;100353.75;;;-0.57;22.05
65534;BME280;53640;55.838;37.184;2023-04-15T01:55:31;100384.69;;;-0.45;21.92
65534;BME280;53640;55.838;37.184;2023-04-15T01:57:59;100399.31;;;-0.40;22.14
65534;BME280;53640;55.838;37.184;2023-04-15T02:00:28;100370.31;;;-0.54;22.05
65534;BME280;53640;55.838;37.184;2023-04-15T02:02:56;100331.78;;;-0.82;22.01
65534;BME280;53640;55.838;37.184;2023-04-15T02:05:26;100395.59;;;-0.48;22.06
65534;BME280;53640;55.838;37.184;2023-04-15T02:07:54;100399.69;;;-0.44;21.89
65534;BME280;53640;55.838;37.184;2023-04-15T02:10:23;100410.81;;;-0.39;21.99
65534;BME280;53640;55.838;37.184;2023-04-15T02:12:50;100365.81;;;-0.65;22.01
65534;BME280;53640;55.838;37.184;2023-04-15T02:15:18;100336.22;;;-0.94;22.14
65534;BME280;53640;55.838;37.184;2023-04-15T02:17:46;100390.59;;;-0.64;21.98
65534;BME280;53640;55.838;37.184;2023-04-15T02:20:18;100420.97;;;-0.44;22.16
65534;BME280;53640;55.838;37.184;2023-04-15T02:22:49;100379.97;;;-0.75;22.19
65534;BME280;53640;55.838;37.184;2023-04-15T02:25:19;100359.66;;;-0.88;22.15
65534;BME280;53640;55.838;37.184;2023-04-15T02:27:47;100388.66;;;-0.73;22.21
65534;BME280;53640;55.838;37.184;2023-04-15T02:30:17;100438.75;;;-0.45;22.12
65534;BME280;53640;55.838;37.184;2023-04-15T02:32:46;100348.91;;;-0.97;22.20
65534;BME280;53640;55.838;37.184;2023-04-15T02:35:14;100421.19;;;-0.58;22.15
65534;BME280;53640;55.838;37.184;2023-04-15T02:37:43;100377.66;;;-0.80;22.27
65534;BME280;53640;55.838;37.184;2023-04-15T02:40:13;100351.28;;;-1.05;22.53
65534;BME280;53640;55.838;37.184;2023-04-15T02:42:41;100309.09;;;-1.32;22.51
65534;BME280;53640;55.838;37.184;2023-04-15T02:45:13;100301.13;;;-1.44;22.29
65534;BME280;53640;55.838;37.184;2023-04-15T02:47:42;100328.06;;;-1.37;22.60
65534;BME280;53640;55.838;37.184;2023-04-15T02:50:11;100321.66;;;-1.46;22.61
65534;BME280;53640;55.838;37.184;2023-04-15T02:52:42;100407.72;;;-0.91;22.55
65534;BME280;53640;55.838;37.184;2023-04-15T02:55:10;100403.00;;;-0.98;22.72
65534;BME280;53640;55.838;37.184;2023-04-15T02:57:39;100366.84;;;-1.23;22.88
65534;BME280;53640;55.838;37.184;2023-04-15T03:00:10;100306.13;;;-1.63;22.55
65534;BME280;53640;55.838;37.184;2023-04-15T03:02:41;100444.22;;;-0.93;22.82
65534;BME280;53640;55.838;37.184;2023-04-15T03:05:11;100332.38;;;-1.47;22.64
65534;BME280;53640;55.838;37.184;2023-04-15T03:07:41;100340.81;;;-1.53;22.97
65534;BME280;53640;55.838;37.184;2023-04-15T03:10:09;100375.16;;;-1.28;22.75
65534;BME280;53640;55.838;37.184;2023-04-15T03:12:37;100398.25;;;-1.17;22.75
65534;BME280;53640;55.838;37.184;2023-04-15T03:15:08;100321.44;;;-1.67;22.93
65534;BME280;53640;55.838;37.184;2023-04-15T03:17:40;100419.06;;;-1.00;22.98
65534;BME280;53640;55.838;37.184;2023-04-15T03:20:08;100432.84;;;-0.95;22.83
65534;BME280;53640;55.838;37.184;2023-04-15T03:22:37;100365.84;;;-1.33;22.77
65534;BME280;53640;55.838;37.184;2023-04-15T03:25:06;100353.00;;;-1.51;22.92
65534;BME280;53640;55.838;37.184;2023-04-15T03:27:35;100376.00;;;-1.39;23.16
65534;BME280;53640;55.838;37.184;2023-04-15T03:30:06;100473.59;;;-0.72;22.78
65534;BME280;53640;55.838;37.184;2023-04-15T03:32:37;100394.63;;;-1.27;22.88
65534;BME280;53640;55.838;37.184;2023-04-15T03:35:11;100431.38;;;-0.99;22.74
65534;BME280;53640;55.838;37.184;2023-04-15T03:37:39;100402.00;;;-1.20;22.96
65534;BME280;53640;55.838;37.184;2023-04-15T03:40:08;100351.53;;;-1.55;22.97
65534;BME280;53640;55.838;37.184;2023-04-15T03:42:37;100461.25;;;-0.84;23.02
65534;BME280;53640;55.838;37.184;2023-04-15T03:45:05;100481.25;;;-0.67;22.94
65534;BME280;53640;55.838;37.184;2023-04-15T03:47:34;100461.66;;;-0.77;22.89
65534;BME280;53640;55.838;37.184;2023-04-15T03:50:05;100452.59;;;-0.86;22.86
65534;BME280;53640;55.838;37.184;2023-04-15T03:52:33;100363.94;;;-1.31;23.04
65534;BME280;53640;55.838;37.184;2023-04-15T03:55:01;100458.38;;;-0.81;22.90
65534;BME280;53640;55.838;37.184;2023-04-15T03:57:35;100373.69;;;-1.32;23.10
65534;BME280;53640;55.838;37.184;2023-04-15T04:00:06;100459.59;;;-0.74;22.83
65534;BME280;53640;55.838;37.184;2023-04-15T04:02:39;100454.53;;;-0.66;22.90
65534;BME280;53640;55.838;37.184;2023-04-15T04:05:07;100378.56;;;-1.15;22.94
65534;BME280;53640;55.838;37.184;2023-04-15T04:07:38;100397.34;;;-1.05;22.77
65534;BME280;53640;55.838;37.184;2023-04-15T04:10:06;100411.97;;;-0.88;23.02
65534;BME280;53640;55.838;37.184;2023-04-15T04:12:34;100413.91;;;-0.90;22.67
65534;BME280;53640;55.838;37.184;2023-04-15T04:15:02;100469.06;;;-0.47;22.77
65534;BME280;53640;55.838;37.184;2023-04-15T04:17:29;100455.28;;;-0.52;22.95
65534;BME280;53640;55.838;37.184;2023-04-15T04:19:57;100516.75;;;-0.10;22.89
65534;BME280;53640;55.838;37.184;2023-04-15T04:22:25;100497.38;;;-0.24;22.87
65534;BME280;53640;55.838;37.184;2023-04-15T04:24:52;100512.03;;;-0.07;22.76
65534;BME280;53640;55.838;37.184;2023-04-15T04:27:20;100451.44;;;-0.37;22.71
65534;BME280;53640;55.838;37.184;2023-04-15T04:29:48;100518.91;;;0.07;22.58
65534;BME280;53640;55.838;37.184;2023-04-15T04:32:16;100499.34;;;-0.03;22.47
65534;BME280;53640;55.838;37.184;2023-04-15T04:34:43;100539.13;;;0.21;22.79
65534;BME280;53640;55.838;37.184;2023-04-15T04:37:11;100498.00;;;0.02;22.68
65534;BME280;53640;55.838;37.184;2023-04-15T04:39:40;100522.91;;;0.24;22.42
65534;BME280;53640;55.838;37.184;2023-04-15T04:42:09;100494.09;;;0.18;22.45
65534;BME280;53640;55.838;37.184;2023-04-15T04:44:38;100531.59;;;0.37;22.39
65534;BME280;53640;55.838;37.184;2023-04-15T04:47:05;100493.25;;;0.17;22.45
65534;BME280;53640;55.838;37.184;2023-04-15T04:49:35;100515.13;;;0.43;22.40
65534;BME280;53640;55.838;37.184;2023-04-15T04:52:05;100477.16;;;0.19;22.47
65534;BME280;53640;55.838;37.184;2023-04-15T04:54:37;100517.44;;;0.48;22.16
65534;BME280;53640;55.838;37.184;2023-04-15T04:57:05;100522.97;;;0.56;21.93
65534;BME280;53640;55.838;37.184;2023-04-15T04:59:34;100496.63;;;0.42;21.58
65534;BME280;53640;55.838;37.184;2023-04-15T05:02:02;100449.69;;;0.18;21.76
65534;BME280;53640;55.838;37.184;2023-04-15T05:04:30;100516.34;;;0.50;21.86
65534;BME280;53640;55.838;37.184;2023-04-15T05:07:01;100461.44;;;0.16;21.76
65534;BME280;53640;55.838;37.184;2023-04-15T05:09:30;100415.88;;;-0.14;21.55
65534;BME280;53640;55.838;37.184;2023-04-15T05:12:03;100479.19;;;0.38;21.44
65534;BME280;53640;55.838;37.184;2023-04-15T05:14:40;100474.97;;;0.35;21.37
65534;BME280;53640;55.838;37.184;2023-04-15T05:17:09;100370.19;;;-0.41;21.31
65534;BME280;53640;55.838;37.184;2023-04-15T05:19:45;100400.88;;;-0.15;21.33
65534;BME280;53640;55.838;37.184;2023-04-15T05:22:12;100533.84;;;0.64;21.28
65534;BME280;53640;55.838;37.184;2023-04-15T05:24:41;100537.97;;;0.79;21.18
65534;BME280;53640;55.838;37.184;2023-04-15T05:27:10;100517.00;;;0.75;21.26
65534;BME280;53640;55.838;37.184;2023-04-15T05:29:39;100510.66;;;0.87;21.09
65534;BME280;53640;55.838;37.184;2023-04-15T05:32:08;100508.00;;;0.87;20.87
65534;BME280;53640;55.838;37.184;2023-04-15T05:34:35;100474.84;;;0.80;20.97
65534;BME280;53640;55.838;37.184;2023-04-15T05:37:03;100488.75;;;0.95;20.91
65534;BME280;53640;55.838;37.184;2023-04-15T05:39:32;100536.06;;;1.35;20.96
65534;BME280;53640;55.838;37.184;2023-04-15T05:42:00;100499.59;;;1.24;20.92
65534;BME280;53640;55.838;37.184;2023-04-15T05:44:28;100466.19;;;0.99;20.44
65534;BME280;53640;55.838;37.184;2023-04-15T05:46:57;100534.16;;;1.46;20.39
65534;BME280;53640;55.838;37.184;2023-04-15T05:49:25;100554.94;;;1.64;20.20
65534;BME280;53640;55.838;37.184;2023-04-15T05:51:53;100551.88;;;1.68;20.26
65534;BME280;53640;55.838;37.184;2023-04-15T05:54:22;100515.81;;;1.53;20.55
65534;BME280;53640;55.838;37.184;2023-04-15T05:56:50;100508.00;;;1.61;20.41
65534;BME280;53640;55.838;37.184;2023-04-15T05:59:18;100497.66;;;1.47;20.21
65534;BME280;53640;55.838;37.184;2023-04-15T06:01:45;100524.66;;;1.74;20.09
65534;BME280;53640;55.838;37.184;2023-04-15T06:04:13;100559.13;;;2.08;20.18
65534;BME280;53640;55.838;37.184;2023-04-15T06:06:41;100552.13;;;2.17;20.29
65534;BME280;53640;55.838;37.184;2023-04-15T06:09:09;100522.91;;;2.15;19.82
65534;BME280;53640;55.838;37.184;2023-04-15T06:11:37;100504.22;;;2.25;19.74
65534;BME280;53640;55.838;37.184;2023-04-15T06:14:06;100517.47;;;2.26;19.68
65534;BME280;53640;55.838;37.184;2023-04-15T06:16:34;100497.66;;;2.39;19.78
65534;BME280;53640;55.838;37.184;2023-04-15T06:19:02;100535.88;;;2.79;19.43
65534;BME280;53640;55.838;37.184;2023-04-15T06:21:30;100543.91;;;2.99;19.20
65534;BME280;53640;55.838;37.184;2023-04-15T06:24:01;100462.06;;;2.48;19.11
65534;BME280;53640;55.838;37.184;2023-04-15T06:26:31;100497.16;;;2.74;19.07
65534;BME280;53640;55.838;37.184;2023-04-15T06:28:59;100575.19;;;3.27;18.69
65534;BME280;53640;55.838;37.184;2023-04-15T06:31:28;100575.44;;;3.34;18.73
65534;BME280;53640;55.838;37.184;2023-04-15T06:33:56;100549.56;;;3.25;18.50
65534;BME280;53640;55.838;37.184;2023-04-15T06:36:24;100565.47;;;3.36;18.49
65534;BME280;53640;55.838;37.184;2023-04-15T06:38:51;100557.72;;;3.33;18.49
65534;BME280;53640;55.838;37.184;2023-04-15T06:41:19;100542.22;;;3.27;18.34
65534;BME280;53640;55.838;37.184;2023-04-15T06:43:47;100514.47;;;3.18;18.78
65534;BME280;53640;55.838;37.184;2023-04-15T06:46:56;100491.53;;;3.06;18.74
65534;BME280;53640;55.838;37.184;2023-04-15T06:49:33;100460.72;;;3.02;18.13
65534;BME280;53640;55.838;37.184;2023-04-15T06:52:01;100450.97;;;3.01;18.16
65534;BME280;53640;55.838;37.184;2023-04-15T06:54:29;100447.63;;;2.99;18.37
65534;BME280;53640;55.838;37.184;2023-04-15T06:56:59;100496.59;;;3.58;18.11
65534;BME280;53640;55.838;37.184;2023-04-15T06:59:28;100468.69;;;3.31;17.97
65534;BME280;53640;55.838;37.184;2023-04-15T07:01:55;100494.19;;;3.55;17.78
65534;BME280;53640;55.838;37.184;2023-04-15T07:04:25;100539.34;;;3.87;17.83
65534;BME280;53640;55.838;37.184;2023-04-15T07:06:54;100483.59;;;3.63;17.59
65534;BME280;53640;55.838;37.184;2023-04-15T07:09:23;100468.03;;;3.76;17.34
65534;BME280;53640;55.838;37.184;2023-04-15T07:11:56;100449.75;;;3.71;17.45
65534;BME280;53640;55.838;37.184;2023-04-15T07:14:24;100511.16;;;4.20;17.57
65534;BME280;53640;55.838;37.184;2023-04-15T07:16:52;100504.56;;;4.42;17.59
65534;BME280;53640;55.838;37.184;2023-04-15T07:19:27;100518.44;;;4.55;17.39
65534;BME280;53640;55.838;37.184;2023-04-15T07:21:56;100530.47;;;4.79;16.49
65534;BME280;53640;55.838;37.184;2023-04-15T07:24:24;100450.47;;;4.29;16.71
65534;BME280;53640;55.838;37.184;2023-04-15T07:31:11;100476.16;;;4.49;16.60
65534;BME280;53640;55.838;37.184;2023-04-15T07:33:39;100442.66;;;4.35;16.46
65534;BME280;53640;55.838;37.184;2023-04-15T07:36:06;100511.59;;;4.88;16.25
65534;BME280;53640;55.838;37.184;2023-04-15T07:38:34;100569.69;;;5.43;16.05
65534;BME280;53640;55.838;37.184;2023-04-15T07:41:06;100495.56;;;5.14;16.06
65534;BME280;53640;55.838;37.184;2023-04-15T07:43:38;100558.78;;;5.62;15.88
65534;BME280;53640;55.838;37.184;2023-04-15T07:46:06;100565.56;;;5.75;15.69
65534;BME280;53640;55.838;37.184;2023-04-15T07:48:33;100559.63;;;5.89;14.89
65534;BME280;53640;55.838;37.184;2023-04-15T07:51:02;100557.38;;;5.76;15.30
65534;BME280;53640;55.838;37.184;2023-04-15T07:53:30;100570.75;;;5.94;15.13
65534;BME280;53640;55.838;37.184;2023-04-15T07:55:59;100524.00;;;5.87;14.81
65534;BME280;53640;55.838;37.184;2023-04-15T07:58:28;100545.50;;;5.87;14.70
65534;BME280;53640;55.838;37.184;2023-04-15T08:00:55;100531.66;;;5.74;14.99
65534;BME280;53640;55.838;37.184;2023-04-15T08:03:24;100567.34;;;5.84;15.03
65534;BME280;53640;55.838;37.184;2023-04-15T08:49:41;100545.03;;;7.10;14.09
65534;BME280;53640;55.838;37.184;2023-04-15T08:52:10;100551.28;;;7.19;14.15
65534;BME280;53640;55.838;37.184;2023-04-15T08:54:49;100528.41;;;7.15;14.08
65534;BME280;53640;55.838;37.184;2023-04-15T08:57:23;100504.31;;;7.13;13.86
65534;BME280;53640;55.838;37.184;2023-04-15T08:59:55;100465.94;;;7.20;13.95
65534;BME280;53640;55.838;37.184;2023-04-15T09:02:31;100474.53;;;7.31;13.19
65534;BME280;53640;55.838;37.184;2023-04-15T09:05:53;100483.59;;;7.55;13.45
65534;BME280;53640;55.838;37.184;2023-04-15T09:08:21;100497.19;;;7.78;13.86
65534;BME280;53640;55.838;37.184;2023-04-15T09:10:49;100532.13;;;8.27;13.13
65534;BME280;53640;55.838;37.184;2023-04-15T09:13:17;100521.59;;;8.48;13.35
65534;BME280;53640;55.838;37.184;2023-04-15T09:15:46;100541.63;;;8.93;13.14
65534;BME280;53640;55.838;37.184;2023-04-15T09:18:27;100541.84;;;9.06;12.63
65534;BME280;53640;55.838;37.184;2023-04-15T09:21:15;100544.69;;;9.13;12.50
65534;BME280;53640;55.838;37.184;2023-04-15T09:24:16;100397.69;;;8.39;12.81
65534;BME280;53640;55.838;37.184;2023-04-15T09:27:08;100400.72;;;8.67;12.50
65534;BME280;53640;55.838;37.184;2023-04-15T09:30:24;100415.00;;;8.98;12.33
65534;BME280;53640;55.838;37.184;2023-04-15T09:33:05;100539.13;;;10.13;11.78
65534;BME280;53640;55.838;37.184;2023-04-15T09:35:39;100542.34;;;10.38;12.16
65534;BME280;53640;55.838;37.184;2023-04-15T09:38:21;100461.13;;;10.02;11.48
65534;BME280;53640;55.838;37.184;2023-04-15T09:41:22;100415.16;;;9.87;11.35
65534;BME280;53640;55.838;37.184;2023-04-15T09:43:51;100410.34;;;10.19;11.58
65534;BME280;53640;55.838;37.184;2023-04-15T09:49:54;100493.56;;;11.47;10.89
65534;BME280;53640;55.838;37.184;2023-04-15T09:52:46;100466.06;;;11.50;10.87
65534;BME280;53640;55.838;37.184;2023-04-15T09:58:36;100403.28;;;11.74;10.59
65534;BME280;53640;55.838;37.184;2023-04-15T10:01:29;100434.66;;;11.90;10.25
65534;BME280;53640;55.838;37.184;2023-04-15T10:04:16;100463.72;;;12.03;10.11
65534;BME280;53640;55.838;37.184;2023-04-15T10:06:47;100407.63;;;11.41;10.30
65534;BME280;53640;55.838;37.184;2023-04-15T10:09:18;100411.09;;;11.63;10.41
65534;BME280;53640;55.838;37.184;2023-04-15T10:12:22;100443.44;;;11.92;10.01
65534;BME280;53640;55.838;37.184;2023-04-15T10:15:04;100381.28;;;11.35;10.18
65534;BME280;53640;55.838;37.184;2023-04-15T10:17:43;100485.66;;;12.02;9.93
65534;BME280;53640;55.838;37.184;2023-04-15T10:20:37;100414.09;;;11.46;10.37
65534;BME280;53640;55.838;37.184;2023-04-15T10:23:11;100451.72;;;11.78;9.75
65534;BME280;53640;55.838;37.184;2023-04-15T10:25:57;100416.22;;;11.51;9.93
65534;BME280;53640;55.838;37.184;2023-04-15T10:28:28;100433.69;;;11.70;9.96
65534;BME280;53640;55.838;37.184;2023-04-15T10:31:00;100383.72;;;11.58;10.35
65534;BME280;53640;55.838;37.184;2023-04-15T10:33:47;100418.56;;;11.82;9.71
65534;BME280;53640;55.838;37.184;2023-04-15T10:36:42;100465.53;;;12.24;9.73
65534;BME280;53640;55.838;37.184;2023-04-15T10:39:39;100415.28;;;11.93;9.59
65534;BME280;53640;55.838;37.184;2023-04-15T10:42:18;100421.16;;;12.04;9.63
65534;BME280;53640;55.838;37.184;2023-04-15T10:45:15;100388.75;;;11.89;9.72
65534;BME280;53640;55.838;37.184;2023-04-15T10:47:45;100475.03;;;12.55;10.23
65534;BME280;53640;55.838;37.184;2023-04-15T10:50:18;100496.28;;;12.79;9.80
65534;BME280;53640;55.838;37.184;2023-04-15T10:52:56;100489.50;;;12.62;9.87
65534;BME280;53640;55.838;37.184;2023-04-15T10:55:26;100444.25;;;12.28;10.38
65534;BME280;53640;55.838;37.184;2023-04-15T10:57:58;100473.81;;;12.57;9.90
65534;BME280;53640;55.838;37.184;2023-04-15T11:04:58;100517.66;;;13.09;9.78
65534;BME280;53640;55.838;37.184;2023-04-15T11:08:14;100482.41;;;12.67;9.64
65534;BME280;53640;55.838;37.184;2023-04-15T11:10:54;100390.97;;;12.20;9.81
65534;BME280;53640;55.838;37.184;2023-04-15T11:13:32;100446.06;;;12.68;9.86
65534;BME280;53640;55.838;37.184;2023-04-15T11:19:37;100461.59;;;12.33;9.58
65534;BME280;53640;55.838;37.184;2023-04-15T11:23:10;100511.91;;;12.29;9.46
65534;BME280;53640;55.838;37.184;2023-04-15T11:26:18;100408.50;;;11.48;9.73
65534;BME280;53640;55.838;37.184;2023-04-15T11:28:55;100472.84;;;11.61;9.54
65534;BME280;53640;55.838;37.184;2023-04-15T11:31:46;100505.53;;;11.81;9.60
65534;BME280;53640;55.838;37.184;2023-04-15T11:34:21;100482.84;;;11.88;9.95
65534;BME280;53640;55.838;37.184;2023-04-15T11:36:50;100515.91;;;11.98;9.65
65534;BME280;53640;55.838;37.184;2023-04-15T11:39:22;100506.16;;;12.04;9.81
65534;BME280;53640;55.838;37.184;2023-04-15T11:41:49;100510.31;;;12.07;9.93
65534;BME280;53640;55.838;37.184;2023-04-15T11:47:47;100388.47;;;11.49;9.94
65534;BME280;53640;55.838;37.184;2023-04-15T11:50:22;100397.69;;;11.55;9.74
65534;BME280;53640;55.838;37.184;2023-04-15T11:52:57;100349.47;;;11.15;9.81
65534;BME280;53640;55.838;37.184;2023-04-15T11:55:27;100441.50;;;11.58;10.19
65534;BME280;53640;55.838;37.184;2023-04-15T11:58:14;100500.56;;;11.84;10.24
65534;BME280;53640;55.838;37.184;2023-04-15T12:00:53;100434.13;;;11.45;10.24
65534;BME280;53640;55.838;37.184;2023-04-15T12:03:34;100460.75;;;11.63;10.40
65534;BME280;53640;55.838;37.184;2023-04-15T12:06:08;100481.97;;;11.81;10.86
65534;BME280;53640;55.838;37.184;2023-04-15T12:14:32;100369.91;;;11.18;10.75
65534;BME280;53640;55.838;37.184;2023-04-15T12:17:01;100486.00;;;11.92;10.92
65534;BME280;53640;55.838;37.184;2023-04-15T12:19:39;100472.88;;;11.95;10.86
65534;BME280;53640;55.838;37.184;2023-04-15T12:22:15;100464.41;;;11.77;10.23
65534;BME280;53640;55.838;37.184;2023-04-15T12:24:44;100472.88;;;11.95;10.83
65534;BME280;53640;55.838;37.184;2023-04-15T12:27:14;100479.91;;;12.18;10.71
65534;BME280;53640;55.838;37.184;2023-04-15T12:29:42;100487.72;;;12.34;10.87
65534;BME280;53640;55.838;37.184;2023-04-15T12:32:11;100447.53;;;12.16;10.21
65534;BME280;53640;55.838;37.184;2023-04-15T12:35:07;100463.28;;;12.34;10.31
65534;BME280;53640;55.838;37.184;2023-04-15T12:37:40;100411.00;;;12.19;10.53
65534;BME280;53640;55.838;37.184;2023-04-15T12:40:09;100385.47;;;12.00;10.46
65534;BME280;53640;55.838;37.184;2023-04-15T12:43:01;100476.97;;;12.61;10.31
65534;BME280;53640;55.838;37.184;2023-04-15T12:45:28;100414.56;;;12.19;10.46
65534;BME280;53640;55.838;37.184;2023-04-15T12:47:58;100393.56;;;11.93;10.44
65534;BME280;53640;55.838;37.184;2023-04-15T12:50:31;100369.72;;;11.82;10.45
65534;BME280;53640;55.838;37.184;2023-04-15T12:52:58;100411.59;;;12.14;10.32
65534;BME280;53640;55.838;37.184;2023-04-15T12:55:25;100426.88;;;12.22;10.50
65534;BME280;53640;55.838;37.184;2023-04-15T12:57:52;100475.66;;;12.50;10.08
65534;BME280;53640;55.838;37.184;2023-04-15T13:00:19;100370.75;;;11.81;10.38
65534;BME280;53640;55.838;37.184;2023-04-15T13:02:48;100412.78;;;11.98;10.60
65534;BME280;53640;55.838;37.184;2023-04-15T13:05:17;100475.19;;;12.40;10.59
65534;BME280;53640;55.838;37.184;2023-04-15T13:07:44;100379.56;;;11.90;10.71
65534;BME280;53640;55.838;37.184;2023-04-15T13:10:11;100371.50;;;12.10;10.48
65534;BME280;53640;55.838;37.184;2023-04-15T13:12:40;100407.34;;;12.46;10.42
65534;BME280;53640;55.838;37.184;2023-04-15T13:15:13;100418.66;;;12.63;10.45
65534;BME280;53640;55.838;37.184;2023-04-15T13:17:44;100381.81;;;12.41;10.49
65534;BME280;53640;55.838;37.184;2023-04-15T13:20:18;100340.88;;;12.36;10.40
65534;BME280;53640;55.838;37.184;2023-04-15T13:22:45;100375.19;;;12.63;10.56
65534;BME280;53640;55.838;37.184;2023-04-15T13:25:13;100369.59;;;12.78;10.28
65534;BME280;53640;55.838;37.184;2023-04-15T13:27:42;100348.28;;;12.75;9.97
65534;BME280;53640;55.838;37.184;2023-04-15T13:30:12;100378.00;;;13.10;10.35
65534;BME280;53640;55.838;37.184;2023-04-15T13:32:39;100366.06;;;13.11;10.18
65534;BME280;53640;55.838;37.184;2023-04-15T13:35:09;100478.59;;;13.89;10.13
65534;BME280;53640;55.838;37.184;2023-04-15T13:37:37;100370.22;;;13.27;10.28
65534;BME280;53640;55.838;37.184;2023-04-15T13:40:05;100391.97;;;13.27;10.51
65534;BME280;53640;55.838;37.184;2023-04-15T13:42:32;100410.41;;;13.18;10.48
65534;BME280;53640;55.838;37.184;2023-04-15T13:45:04;100406.00;;;12.84;10.16
65534;BME280;53640;55.838;37.184;2023-04-15T13:47:44;100335.00;;;12.19;10.45
65534;BME280;53640;55.838;37.184;2023-04-15T13:53:32;100437.72;;;12.15;10.93
65534;BME280;53640;55.838;37.184;2023-04-15T13:55:59;100370.78;;;11.53;10.95
65534;BME280;53640;55.838;37.184;2023-04-15T13:58:50;100443.06;;;11.67;11.30
65534;BME280;53640;55.838;37.184;2023-04-15T14:01:18;100322.03;;;10.75;11.42
65534;BME280;53640;55.838;37.184;2023-04-15T14:03:57;100365.97;;;10.71;11.23
65534;BME280;53640;55.838;37.184;2023-04-15T14:06:29;100339.19;;;10.40;11.50
65534;BME280;53640;55.838;37.184;2023-04-15T14:08:59;100361.81;;;10.32;11.51
65534;BME280;53640;55.838;37.184;2023-04-15T14:11:26;100406.94;;;10.46;11.87
65534;BME280;53640;55.838;37.184;2023-04-15T14:14:03;100355.28;;;9.90;11.86
65534;BME280;53640;55.838;37.184;2023-04-15T14:16:51;100353.31;;;9.84;12.07
65534;BME280;53640;55.838;37.184;2023-04-15T14:19:18;100341.31;;;9.72;12.00
65534;BME280;53640;55.838;37.184;2023-04-15T14:21:48;100417.94;;;10.09;12.21
65534;BME280;53640;55.838;37.184;2023-04-15T14:24:16;100426.13;;;10.00;12.29
65534;BME280;53640;55.838;37.184;2023-04-15T14:26:45;100346.13;;;9.32;12.33